Pine Run, South Dakota
Current Conditions -  °F | °C
As of 5:52 PM on Friday 28 Nov 2014 (Local Time) from KVTN Reporting Station
Clear Clear  
Wind Chill: 44°   Ceiling: Unl
Heat Index: 47°   Visibility: 10mi
Dew Point: 26°   Wind: 7mph
Humidity: 44%   Direction: 200°SSW
Pressure: 29.61"   Gusts: NA
Location:  43.1909°N, 100.475°W
Report Text: KVTN 282352Z AUTO 20006KT 10SM CLR 08/M03 A2961 RMK AO2 SLP040 T00831033 10189 20067 58007
Loading
Personal Weather Stations






























Interactive Weather Map New forecast layout! Learn more

10-Day Weather Forecast

Advertisements
Track Severe Weather on mobile